Time;durP1;ratioP1;P1;durP2;ratioP2;P2;SDS_P1;SDS_P2;PMS_P1;PMS_P2;Temp;Humidity;BMP_temperature;BMP_pressure;BME280_temperature;BME280_humidity;BME280_pressure;Samples;Min_cycle;Max_cycle;Signal;HPM_P1;HPM_P2
2022/06/13 00:00:23;;;;;;;17.75;8.20;;;13.60;99.90;;;;;;5133832;28;20039;-72
2022/06/13 00:02:49;;;;;;;14.40;7.47;;;13.60;99.90;;;;;;5115176;28;20130;-72
2022/06/13 00:05:16;;;;;;;14.90;7.55;;;13.60;99.90;;;;;;5115223;28;20126;-72
2022/06/13 00:07:42;;;;;;;14.15;7.05;;;13.60;99.90;;;;;;5115577;28;20428;-71
2022/06/13 00:10:09;;;;;;;16.88;7.82;;;13.60;99.90;;;;;;5133555;28;20122;-71
2022/06/13 00:12:35;;;;;;;15.13;7.93;;;13.60;99.90;;;;;;5133727;28;20042;-71
2022/06/13 00:15:02;;;;;;;22.13;7.15;;;13.60;99.90;;;;;;5115444;28;20061;-71
2022/06/13 00:17:28;;;;;;;14.77;7.53;;;13.60;99.90;;;;;;5098031;28;20039;-71
2022/06/13 00:19:54;;;;;;;18.77;7.85;;;13.50;99.90;;;;;;5133534;28;20046;-71
2022/06/13 00:22:20;;;;;;;16.50;8.18;;;13.50;99.90;;;;;;5098125;28;20042;-72
2022/06/13 00:24:45;;;;;;;20.92;8.20;;;13.50;99.90;;;;;;5115115;28;20046;-72
2022/06/13 00:27:12;;;;;;;15.10;8.07;;;13.50;99.90;;;;;;5131393;28;20474;-72
2022/06/13 00:29:39;;;;;;;16.67;7.68;;;13.50;99.90;;;;;;5115578;27;20581;-71
2022/06/13 00:32:06;;;;;;;18.02;8.25;;;13.50;99.90;;;;;;5119136;27;20034;-71
2022/06/13 00:34:32;;;;;;;19.92;8.00;;;13.50;99.90;;;;;;5119014;27;20050;-71
2022/06/13 00:36:58;;;;;;;16.63;8.40;;;13.50;99.90;;;;;;5118896;27;20039;-72
2022/06/13 00:39:24;;;;;;;21.75;8.45;;;13.40;99.90;;;;;;5137193;27;20471;-71
2022/06/13 00:41:50;;;;;;;18.48;7.93;;;13.40;99.90;;;;;;5137174;27;20049;-71
2022/06/13 00:44:29;;;;;;;16.30;8.60;;;13.40;99.90;;;;;;5101570;27;20079;-71
2022/06/13 00:46:56;;;;;;;20.15;8.77;;;13.40;99.90;;;;;;5136989;27;20439;-72
2022/06/13 00:49:34;;;;;;;18.23;8.25;;;13.40;99.90;;;;;;5101948;27;20054;-72
2022/06/13 00:52:07;;;;;;;22.95;10.05;;;13.50;99.90;;;;;;5118395;27;20505;-72
2022/06/13 00:54:36;;;;;;;17.50;9.57;;;13.40;99.90;;;;;;5118729;27;20447;-71
2022/06/13 00:57:04;;;;;;;21.02;9.45;;;13.50;99.90;;;;;;5134698;27;20031;-71
2022/06/13 00:59:36;;;;;;;20.70;9.82;;;13.50;99.90;;;;;;5136814;27;20047;-71
2022/06/13 01:02:03;;;;;;;22.85;10.25;;;13.50;99.90;;;;;;5118367;27;20054;-71
2022/06/13 01:04:29;;;;;;;21.98;11.15;;;13.50;99.90;;;;;;5136648;27;20586;-71
2022/06/13 01:06:57;;;;;;;19.85;10.52;;;13.60;99.90;;;;;;5118508;27;20152;-71
2022/06/13 01:11:16;;;;;;;26.08;10.80;;;13.60;99.90;;;;;;5136765;27;20038;-72
2022/06/13 01:12:11;;;;;;;22.80;9.15;;;13.60;99.90;;;;;;5118316;27;20169;-71
2022/06/13 01:15:01;;;;;;;24.00;9.82;;;13.60;99.90;;;;;;5118359;27;20118;-72
2022/06/13 01:17:48;;;;;;;21.98;10.52;;;13.60;99.90;;;;;;5136592;27;20047;-71
2022/06/13 01:20:39;;;;;;;24.55;11.70;;;13.60;99.90;;;;;;5118042;27;20039;-72
2022/06/13 01:23:34;;;;;;;26.90;11.18;;;13.60;99.90;;;;;;5117779;27;20510;-72
2022/06/13 01:26:37;;;;;;;23.80;10.18;;;13.70;99.90;;;;;;5134159;27;20429;-72
2022/06/13 01:29:03;;;;;;;22.63;11.88;;;13.70;99.90;;;;;;5117912;27;20042;-71
2022/06/13 01:31:52;;;;;;;26.02;12.20;;;13.60;99.90;;;;;;5117880;27;20039;-72
2022/06/13 01:34:50;;;;;;;17.35;10.23;;;13.70;99.90;;;;;;5135436;27;20053;-72
2022/06/13 01:37:27;;;;;;;20.77;10.43;;;13.60;99.90;;;;;;5136269;27;20100;-72
2022/06/13 01:39:53;;;;;;;21.13;9.85;;;13.70;99.90;;;;;;5117693;27;20521;-72
2022/06/13 01:42:47;;;;;;;24.77;11.13;;;13.70;99.90;;;;;;5117616;27;20035;-71
2022/06/13 01:45:19;;;;;;;26.63;11.02;;;13.60;99.90;;;;;;5135898;27;20047;-71
2022/06/13 01:47:51;;;;;;;22.33;10.68;;;13.60;99.90;;;;;;5135849;27;20075;-72
2022/06/13 01:50:17;;;;;;;22.85;10.80;;;13.60;99.90;;;;;;5136016;27;20031;-72
2022/06/13 01:53:06;;;;;;;21.95;10.23;;;13.70;99.90;;;;;;5117275;27;20122;-72
2022/06/13 01:55:38;;;;;;;21.13;10.85;;;13.70;99.90;;;;;;5115185;27;20207;-72
2022/06/13 01:58:16;;;;;;;21.08;10.98;;;13.70;99.90;;;;;;5135756;27;20047;-72
2022/06/13 02:00:53;;;;;;;25.48;10.23;;;13.70;99.90;;;;;;5088989;28;20415;-72
2022/06/13 02:03:35;;;;;;;20.83;10.50;;;13.60;99.90;;;;;;5096786;28;20035;-71
2022/06/13 02:06:09;;;;;;;18.20;10.60;;;13.60;99.90;;;;;;5079454;28;20051;-71
2022/06/13 02:08:44;;;;;;;21.60;11.02;;;13.60;99.90;;;;;;5114040;28;20044;-71
2022/06/13 02:11:20;;;;;;;20.50;11.02;;;13.50;99.90;;;;;;5095689;28;20047;-71
2022/06/13 02:13:56;;;;;;;18.77;10.02;;;13.50;99.90;;;;;;5113901;28;20044;-71
2022/06/13 02:16:26;;;;;;;18.65;10.07;;;13.50;99.90;;;;;;5095781;28;20049;-71
2022/06/13 02:19:03;;;;;;;22.10;9.68;;;13.50;99.90;;;;;;5113625;28;20054;-72
2022/06/13 02:21:51;;;;;;;21.50;9.63;;;13.50;99.90;;;;;;5113626;28;20483;-71
2022/06/13 02:24:22;;;;;;;19.65;8.88;;;13.50;99.90;;;;;;5095312;28;20495;-71
2022/06/13 02:26:55;;;;;;;19.65;9.35;;;13.50;99.90;;;;;;5111074;28;20043;-72
2022/06/13 02:29:26;;;;;;;20.67;10.00;;;13.50;99.90;;;;;;5095567;28;20035;-71
2022/06/13 02:32:06;;;;;;;17.80;8.38;;;13.50;99.90;;;;;;5113369;28;20051;-71
2022/06/13 02:34:46;;;;;;;16.33;9.10;;;13.50;99.90;;;;;;5113420;28;20048;-72
2022/06/13 02:37:11;;;;;;;;;;;13.50;99.90;;;;;;5095735;28;20376;-72
2022/06/13 02:40:12;;;;;;;18.13;8.48;;;13.40;99.90;;;;;;5095365;28;19927;-72
2022/06/13 02:42:41;;;;;;;16.42;7.63;;;13.40;99.90;;;;;;5078104;28;20054;-72
2022/06/13 02:45:15;;;;;;;18.03;8.70;;;13.40;99.90;;;;;;5095263;28;20692;-72
2022/06/13 02:47:52;;;;;;;17.25;7.57;;;13.50;99.90;;;;;;5113091;28;20479;-71
2022/06/13 02:50:25;;;;;;;16.25;7.35;;;13.40;99.90;;;;;;5113173;28;20032;-71
2022/06/13 02:53:06;;;;;;;19.52;7.25;;;13.50;99.90;;;;;;5094487;28;20500;-71
2022/06/13 02:55:49;;;;;;;16.67;7.28;;;13.50;99.90;;;;;;5092672;28;20047;-71
2022/06/13 02:58:28;;;;;;;14.68;6.70;;;13.50;99.90;;;;;;5077936;28;20042;-72
2022/06/13 03:01:05;;;;;;;10.20;6.55;;;13.50;99.90;;;;;;5077871;28;20499;-72
2022/06/13 03:03:41;;;;;;;14.05;6.43;;;13.50;99.90;;;;;;5112788;28;20539;-72
2022/06/13 03:06:21;;;;;;;12.80;5.85;;;13.50;99.90;;;;;;5094752;28;20391;-72
2022/06/13 03:09:11;;;;;;;11.15;6.78;;;13.50;99.90;;;;;;5094715;28;20429;-72
2022/06/13 03:11:37;;;;;;;14.07;6.10;;;13.50;99.90;;;;;;5094862;28;20459;-72
2022/06/13 03:14:19;;;;;;;13.65;5.75;;;13.50;99.90;;;;;;5094432;28;20051;-72
2022/06/13 03:17:05;;;;;;;20.27;6.60;;;13.50;99.90;;;;;;5094512;28;20563;-72
2022/06/13 03:19:43;;;;;;;11.32;5.97;;;13.50;99.90;;;;;;5112543;28;20495;-72
2022/06/13 03:22:30;;;;;;;12.50;6.05;;;13.60;99.90;;;;;;5094487;28;20085;-72
2022/06/13 03:25:02;;;;;;;13.82;6.30;;;13.60;99.90;;;;;;5094373;28;20157;-72
2022/06/13 03:27:49;;;;;;;12.93;6.15;;;13.50;99.90;;;;;;5110281;28;20039;-72
2022/06/13 03:30:22;;;;;;;15.60;6.90;;;13.50;99.90;;;;;;5094584;28;20039;-72
2022/06/13 03:35:46;;;;;;;13.88;5.85;;;13.50;99.90;;;;;;5112389;28;20437;-72
2022/06/13 03:38:22;;;;;;;12.48;5.38;;;13.50;99.90;;;;;;5094191;28;20503;-72
2022/06/13 03:40:53;;;;;;;12.00;4.75;;;13.50;99.90;;;;;;5094141;28;20042;-72
2022/06/13 03:43:44;;;;;;;8.80;4.65;;;13.50;99.90;;;;;;5112172;28;20051;-72
2022/06/13 03:46:16;;;;;;;10.85;4.05;;;13.50;99.90;;;;;;5112185;28;20522;-72
2022/06/13 03:48:51;;;;;;;10.27;4.30;;;13.50;99.90;;;;;;5112223;28;20050;-72
2022/06/13 03:51:27;;;;;;;14.18;4.55;;;13.60;99.90;;;;;;5112407;28;20479;-72
2022/06/13 03:54:12;;;;;;;9.20;3.58;;;13.60;99.90;;;;;;5112169;28;20059;-72
2022/06/13 03:57:03;;;;;;;9.35;2.97;;;13.60;99.90;;;;;;5109835;28;20081;-72
2022/06/13 03:59:46;;;;;;;9.48;2.90;;;13.60;99.90;;;;;;5082984;28;20043;-72
2022/06/13 04:02:14;;;;;;;6.50;2.95;;;13.60;99.90;;;;;;5112176;28;20518;-72
2022/06/13 04:04:45;;;;;;;8.15;2.88;;;13.60;99.90;;;;;;5094662;28;20040;-72
2022/06/13 04:07:11;;;;;;;9.68;3.60;;;13.60;99.90;;;;;;5116237;28;20130;-72
2022/06/13 04:09:46;;;;;;;12.07;3.88;;;13.60;99.90;;;;;;5097939;28;20044;-72
2022/06/13 04:12:12;;;;;;;9.35;3.55;;;13.70;99.90;;;;;;5116387;28;20096;-72
2022/06/13 04:14:47;;;;;;;8.35;3.53;;;13.70;99.90;;;;;;5116057;28;20043;-72
2022/06/13 04:17:43;;;;;;;6.22;2.95;;;13.70;99.90;;;;;;5116066;28;20498;-72
2022/06/13 04:20:33;;;;;;;11.63;4.40;;;13.70;99.90;;;;;;5097677;28;20043;-72
2022/06/13 04:23:25;;;;;;;8.73;4.18;;;13.70;99.90;;;;;;5115980;28;20083;-72
2022/06/13 04:26:14;;;;;;;6.40;3.17;;;13.70;99.90;;;;;;5095411;28;20475;-72
2022/06/13 04:28:46;;;;;;;9.55;3.58;;;13.70;99.90;;;;;;5116197;28;20035;-72
2022/06/13 04:31:13;;;;;;;10.27;3.65;;;13.70;99.90;;;;;;5115919;28;20040;-72
2022/06/13 04:33:50;;;;;;;9.00;4.07;;;13.70;99.90;;;;;;5097710;28;20118;-72
2022/06/13 04:36:17;;;;;;;10.45;3.40;;;13.70;99.90;;;;;;5115688;28;20266;-72
2022/06/13 04:38:49;;;;;;;7.47;3.80;;;13.70;99.90;;;;;;5097398;28;20482;-72
2022/06/13 04:41:16;;;;;;;11.40;3.53;;;13.70;99.90;;;;;;5115849;28;20036;-72
2022/06/13 04:43:47;;;;;;;8.57;3.63;;;13.70;99.90;;;;;;5115272;28;20131;-72
2022/06/13 04:46:20;;;;;;;;;;;13.80;99.90;;;;;;5098044;28;20096;-72
2022/06/13 04:48:49;;;;;;;13.30;4.63;;;13.70;99.90;;;;;;5097195;28;19922;-73
2022/06/13 04:51:31;;;;;;;8.68;3.40;;;13.80;99.90;;;;;;5115481;28;20043;-72
2022/06/13 04:54:51;;;;;;;8.38;3.75;;;13.80;99.90;;;;;;5094961;28;20040;-72
2022/06/13 04:57:18;;;;;;;8.60;3.95;;;13.90;99.90;;;;;;5066394;28;20050;-72
2022/06/13 04:59:45;;;;;;;7.38;3.08;;;13.90;99.90;;;;;;5093605;28;20526;-72
2022/06/13 05:02:33;;;;;;;7.05;3.35;;;14.00;99.90;;;;;;5095225;28;20048;-72
2022/06/13 05:04:59;;;;;;;10.02;2.95;;;14.10;99.90;;;;;;5094619;28;20519;-72
2022/06/13 05:07:25;;;;;;;7.50;2.63;;;14.20;99.90;;;;;;5110733;28;20123;-73
2022/06/13 05:10:01;;;;;;;6.47;2.67;;;14.40;99.90;;;;;;5076458;28;20459;-72
2022/06/13 05:12:40;;;;;;;8.00;2.85;;;14.50;99.90;;;;;;5094710;28;20097;-72
2022/06/13 05:15:19;;;;;;;8.57;2.30;;;14.60;99.90;;;;;;5094430;28;20036;-73
2022/06/13 05:18:02;;;;;;;7.65;2.38;;;14.70;99.90;;;;;;5093628;28;20048;-73
2022/06/13 05:20:38;;;;;;;9.00;2.35;;;14.80;99.90;;;;;;5110149;28;20051;-72
2022/06/13 05:23:04;;;;;;;12.93;3.20;;;14.90;99.90;;;;;;5094697;28;20458;-72
2022/06/13 05:25:47;;;;;;;5.22;2.20;;;15.00;99.90;;;;;;5107943;28;20123;-73
2022/06/13 05:28:19;;;;;;;7.38;2.28;;;15.10;99.90;;;;;;5094530;28;20040;-73
2022/06/13 05:30:48;;;;;;;6.20;1.98;;;15.20;99.90;;;;;;5076192;28;20044;-74
2022/06/13 05:33:17;;;;;;;8.65;2.72;;;15.30;99.90;;;;;;5076129;28;20495;-72
2022/06/13 05:35:45;;;;;;;6.15;2.13;;;15.30;99.90;;;;;;5094226;28;20063;-74
2022/06/13 05:38:30;;;;;;;7.57;2.00;;;15.40;99.90;;;;;;5076432;28;20046;-72
2022/06/13 05:40:56;;;;;;;6.60;1.90;;;15.40;99.90;;;;;;5092796;28;20044;-72
2022/06/13 05:43:22;;;;;;;7.47;1.90;;;15.50;99.90;;;;;;5093978;28;20063;-73
2022/06/13 05:45:48;;;;;;;5.03;2.03;;;15.50;99.90;;;;;;5092802;28;20479;-74
2022/06/13 05:48:16;;;;;;;6.68;1.90;;;15.50;99.90;;;;;;5110072;28;20032;-74
2022/06/13 05:50:43;;;;;;;6.82;1.98;;;15.50;99.90;;;;;;5093830;28;20472;-73
2022/06/13 05:53:17;;;;;;;5.10;2.22;;;15.50;99.90;;;;;;5091793;28;20483;-73
2022/06/13 05:55:44;;;;;;;6.80;2.65;;;15.60;99.90;;;;;;5093946;28;20158;-75
2022/06/13 05:58:16;;;;;;;9.10;2.30;;;15.60;99.90;;;;;;5096141;28;20092;-74
2022/06/13 06:00:52;;;;;;;6.80;2.13;;;15.50;99.90;;;;;;5114040;28;20082;-73
2022/06/13 06:03:18;;;;;;;11.35;2.42;;;15.60;99.90;;;;;;5114066;28;20049;-74
2022/06/13 06:05:45;;;;;;;6.78;2.35;;;15.80;99.90;;;;;;5095588;28;20491;-74
2022/06/13 06:08:21;;;;;;;7.13;2.35;;;15.80;99.90;;;;;;5079002;28;20074;-74
2022/06/13 06:10:50;;;;;;;7.35;2.35;;;15.90;99.90;;;;;;5078725;28;20036;-74
2022/06/13 06:13:16;;;;;;;7.88;2.30;;;15.90;99.90;;;;;;5096089;28;20112;-72
2022/06/13 06:15:43;;;;;;;11.23;2.40;;;15.90;99.90;;;;;;5096519;28;20104;-72
2022/06/13 06:18:10;;;;;;;9.52;2.28;;;16.10;99.90;;;;;;5115938;28;20031;-73
2022/06/13 06:20:36;;;;;;;5.53;2.20;;;16.30;99.90;;;;;;5116409;28;20044;-76
2022/06/13 06:23:03;;;;;;;7.22;2.28;;;16.40;99.90;;;;;;5098156;28;20042;-75
2022/06/13 06:25:29;;;;;;;7.05;2.58;;;16.30;99.90;;;;;;5096088;28;20039;-74
2022/06/13 06:27:55;;;;;;;11.98;2.28;;;16.10;99.90;;;;;;5115578;28;20035;-73
2022/06/13 06:30:21;;;;;;;6.80;2.20;;;15.70;99.90;;;;;;5079651;28;20176;-71
2022/06/13 06:32:47;;;;;;;6.65;2.47;;;15.30;99.90;;;;;;5096397;28;20126;-72
2022/06/13 06:35:14;;;;;;;3.83;1.50;;;14.90;99.90;;;;;;5114094;28;20036;-70
2022/06/13 06:37:45;;;;;;;6.15;2.20;;;14.50;99.90;;;;;;5095969;28;20474;-70
2022/06/13 06:40:12;;;;;;;5.80;1.98;;;14.20;99.90;;;;;;5095978;28;20040;-69
2022/06/13 06:42:38;;;;;;;5.53;1.67;;;14.00;99.90;;;;;;5114064;28;20516;-68
2022/06/13 06:45:04;;;;;;;7.57;2.35;;;13.80;99.90;;;;;;5078667;28;20052;-68
2022/06/13 06:47:30;;;;;;;8.55;2.30;;;13.70;99.90;;;;;;5095919;28;20494;-68
2022/06/13 06:49:56;;;;;;;6.00;1.80;;;13.70;99.90;;;;;;5095708;28;20039;-69
2022/06/13 06:52:22;;;;;;;5.35;2.20;;;13.90;99.90;;;;;;5095707;28;20038;-69
2022/06/13 07:00:19;;;;;;;8.02;2.58;;;14.80;99.90;;;;;;5113799;28;20043;-68
2022/06/13 07:02:46;;;;;;;4.75;1.88;;;15.40;99.90;;;;;;5095551;28;20047;-71
2022/06/13 07:05:13;;;;;;;10.27;1.88;;;15.90;99.90;;;;;;5113667;28;20039;-71
2022/06/13 07:07:39;;;;;;;7.63;2.42;;;16.30;99.90;;;;;;5113859;28;20027;-71
2022/06/13 07:10:07;;;;;;;5.03;1.55;;;16.80;99.90;;;;;;5095732;28;20035;-71
2022/06/13 07:12:33;;;;;;;6.07;1.67;;;16.90;99.90;;;;;;5095672;28;20085;-71
2022/06/13 07:14:59;;;;;;;5.65;1.80;;;16.90;99.90;;;;;;5113427;28;20043;-71
2022/06/13 07:17:26;;;;;;;6.38;2.17;;;16.60;99.90;;;;;;5095238;28;20047;-71
2022/06/13 07:19:52;;;;;;;5.55;1.90;;;16.40;99.90;;;;;;5095395;28;20040;-72
2022/06/13 07:22:23;;;;;;;8.43;2.42;;;16.10;99.90;;;;;;5113415;28;20035;-72
2022/06/13 07:24:49;;;;;;;8.52;2.50;;;15.90;99.90;;;;;;5095214;28;20044;-71
2022/06/13 07:27:16;;;;;;;7.22;2.50;;;15.80;99.90;;;;;;5110991;28;20118;-71
2022/06/13 07:29:42;;;;;;;12.57;2.75;;;15.80;99.90;;;;;;5095181;28;20048;-70
2022/06/13 07:32:14;;;;;;;10.45;2.50;;;16.10;99.90;;;;;;5095404;28;20477;-71
2022/06/13 07:34:41;;;;;;;7.97;1.83;;;16.40;99.90;;;;;;5078341;28;20066;-71
2022/06/13 07:37:12;;;;;;;5.85;1.75;;;16.30;99.90;;;;;;5113448;28;20039;-70
2022/06/13 07:39:38;;;;;;;7.75;1.80;;;16.10;99.90;;;;;;5095015;28;20051;-70
2022/06/13 07:42:05;;;;;;;8.07;1.85;;;16.00;99.90;;;;;;5113254;28;20168;-70
2022/06/13 07:44:34;;;;;;;5.72;1.65;;;16.20;99.90;;;;;;5094745;28;20048;-69
2022/06/13 07:47:00;;;;;;;5.95;1.48;;;16.50;99.90;;;;;;5113431;28;20052;-70
2022/06/13 07:49:26;;;;;;;4.97;1.75;;;17.00;99.90;;;;;;5078326;28;20036;-70
2022/06/13 07:51:53;;;;;;;8.05;1.70;;;17.40;99.90;;;;;;5094955;28;20047;-71
2022/06/13 07:54:19;;;;;;;7.68;1.55;;;17.60;99.90;;;;;;5095292;28;20054;-69
2022/06/13 07:56:45;;;;;;;4.18;1.40;;;17.70;99.90;;;;;;5111253;28;20043;-73
2022/06/13 07:59:19;;;;;;;5.95;1.60;;;17.80;99.90;;;;;;5095241;28;20399;-71
2022/06/13 08:01:45;;;;;;;6.55;1.35;;;18.10;99.90;;;;;;5094923;28;20043;-71
2022/06/13 08:04:11;;;;;;;6.55;1.27;;;18.30;99.90;;;;;;5117382;28;20195;-72
2022/06/13 08:06:41;;;;;;;4.43;1.00;;;18.50;99.90;;;;;;5094502;28;20035;-73
2022/06/13 08:09:07;;;;;;;;;;;18.80;99.90;;;;;;5095156;28;20051;-74
2022/06/13 08:11:36;;;;;;;6.07;1.42;;;19.00;99.90;;;;;;5094721;28;19916;-72
2022/06/13 08:14:06;;;;;;;6.20;1.47;;;19.10;99.90;;;;;;5094754;28;20499;-74
2022/06/13 08:16:34;;;;;;;7.13;1.30;;;18.60;99.90;;;;;;5094590;28;20509;-74
2022/06/13 08:19:03;;;;;;;7.25;2.00;;;18.00;99.90;;;;;;5113032;28;20051;-76
2022/06/13 08:21:30;;;;;;;3.55;1.00;;;17.60;99.90;;;;;;5112814;28;20124;-73
2022/06/13 08:23:56;;;;;;;6.13;1.20;;;17.60;99.90;;;;;;5094829;28;20044;-72
2022/06/13 08:26:22;;;;;;;4.18;1.10;;;17.90;99.90;;;;;;5092485;28;20040;-72
2022/06/13 08:28:48;;;;;;;4.75;1.38;;;18.30;99.90;;;;;;5094741;28;20043;-76
2022/06/13 08:31:17;;;;;;;8.70;1.30;;;18.60;99.90;;;;;;5094750;28;20082;-74
2022/06/13 08:33:43;;;;;;;5.38;1.33;;;18.50;99.90;;;;;;5112937;28;20058;-73
2022/06/13 08:36:11;;;;;;;7.28;1.40;;;18.20;99.90;;;;;;5112751;28;20039;-77
2022/06/13 08:38:37;;;;;;;5.18;1.35;;;18.20;99.90;;;;;;5077930;28;20046;-75
2022/06/13 08:41:14;;;;;;;4.97;1.33;;;18.40;99.90;;;;;;5094597;28;20378;-76
2022/06/13 08:44:18;;;;;;;5.88;1.35;;;18.80;99.90;;;;;;5112608;28;20530;-75
2022/06/13 08:47:00;;;;;;;4.55;1.20;;;19.00;99.90;;;;;;5112611;28;20093;-75
2022/06/13 08:49:36;;;;;;;8.63;1.40;;;18.60;99.90;;;;;;5113036;28;20127;-78
2022/06/13 08:52:22;;;;;;;9.27;1.50;;;18.10;99.90;;;;;;5115496;28;20043;-77
2022/06/13 08:55:10;;;;;;;8.35;1.85;;;17.70;99.90;;;;;;5116504;28;20036;-76
2022/06/13 08:57:43;;;;;;;5.28;1.20;;;17.90;99.90;;;;;;5096307;28;20039;-72
2022/06/13 09:00:15;;;;;;;5.10;1.73;;;18.30;99.90;;;;;;5116517;28;20039;-76
2022/06/13 09:02:50;;;;;;;6.43;1.30;;;18.70;99.90;;;;;;5097885;28;20051;-72
2022/06/13 09:05:33;;;;;;;5.13;1.15;;;19.10;99.90;;;;;;5098008;28;20491;-75
2022/06/13 09:08:32;;;;;;;4.05;1.35;;;19.40;99.90;;;;;;5098127;28;20128;-75
2022/06/13 09:11:04;;;;;;;5.10;1.40;;;19.40;99.90;;;;;;5094062;28;20352;-72
2022/06/13 09:14:07;;;;;;;5.53;1.40;;;19.20;99.90;;;;;;5116095;28;20043;-76
2022/06/13 09:16:35;;;;;;;5.75;1.20;;;18.80;99.90;;;;;;5098018;28;20424;-76
2022/06/13 09:19:15;;;;;;;5.05;1.30;;;18.30;99.90;;;;;;5115903;28;20062;-75
2022/06/13 09:21:50;;;;;;;6.63;1.40;;;18.10;99.90;;;;;;5097570;28;20048;-74
2022/06/13 09:24:34;;;;;;;5.70;1.25;;;18.40;99.90;;;;;;5097510;28;20036;-76
2022/06/13 09:27:18;;;;;;;6.95;1.58;;;18.40;99.90;;;;;;5095699;28;20050;-76
2022/06/13 09:30:02;;;;;;;6.65;1.60;;;18.10;99.90;;;;;;5097501;28;20048;-75
2022/06/13 09:32:39;;;;;;;9.75;1.70;;;18.00;99.90;;;;;;5097542;28;20437;-77
2022/06/13 09:35:10;;;;;;;5.43;1.20;;;18.40;99.90;;;;;;5097720;28;20071;-76
2022/06/13 09:37:49;;;;;;;8.40;1.83;;;18.90;99.90;;;;;;5097618;28;20373;-77
2022/06/13 09:40:25;;;;;;;5.55;1.30;;;19.30;99.90;;;;;;5080759;28;20383;-76
2022/06/13 09:42:53;;;;;;;7.85;1.30;;;19.50;99.90;;;;;;5097204;28;20047;-76
2022/06/13 09:45:43;;;;;;;5.78;1.48;;;19.20;99.90;;;;;;5097305;28;20051;-74
2022/06/13 09:48:19;;;;;;;5.18;1.30;;;18.70;99.90;;;;;;5097204;28;20097;-75
2022/06/13 09:50:53;;;;;;;7.18;1.42;;;18.20;99.90;;;;;;5097526;28;20036;-77
2022/06/13 09:53:50;;;;;;;9.23;2.28;;;17.70;99.90;;;;;;5115854;28;20036;-74
2022/06/13 09:56:37;;;;;;;5.35;1.88;;;17.30;99.90;;;;;;5114244;28;20114;-74
2022/06/13 09:59:34;;;;;;;5.35;1.88;;;17.20;99.90;;;;;;5115580;28;20055;-77
2022/06/13 10:02:10;;;;;;;7.97;1.70;;;17.50;99.90;;;;;;5050217;28;20085;-71
2022/06/13 10:04:41;;;;;;;9.88;2.20;;;18.00;99.90;;;;;;5096849;28;20067;-77
2022/06/13 10:07:23;;;;;;;7.25;2.22;;;18.30;99.90;;;;;;5115090;28;20039;-73
2022/06/13 10:10:00;;;;;;;7.95;1.60;;;18.70;99.90;;;;;;5097074;28;20039;-77
2022/06/13 10:12:27;;;;;;;7.25;2.03;;;18.90;99.90;;;;;;5096653;28;20046;-76
2022/06/13 10:15:30;;;;;;;7.40;1.60;;;19.10;99.90;;;;;;5097033;28;20403;-72
2022/06/13 10:17:56;;;;;;;5.90;1.40;;;19.40;99.90;;;;;;5065585;28;20522;-74
2022/06/13 10:20:31;;;;;;;5.68;1.33;;;19.60;99.90;;;;;;5114874;28;20075;-75
2022/06/13 10:23:21;;;;;;;5.70;1.50;;;19.70;99.90;;;;;;5115080;28;20067;-73
2022/06/13 10:25:56;;;;;;;6.45;1.45;;;19.70;99.90;;;;;;5094391;28;20467;-72
2022/06/13 10:28:44;;;;;;;4.90;1.52;;;19.90;99.90;;;;;;5096292;28;20471;-74
2022/06/13 10:31:50;;;;;;;7.38;1.95;;;20.20;99.90;;;;;;5114733;28;20050;-73
2022/06/13 10:34:24;;;;;;;5.07;1.50;;;20.00;99.90;;;;;;5114770;28;20062;-72
2022/06/13 10:36:59;;;;;;;6.38;1.83;;;19.50;99.90;;;;;;5096768;28;20100;-71
2022/06/13 10:39:27;;;;;;;7.18;1.67;;;19.00;99.90;;;;;;5114485;28;20125;-72
2022/06/13 10:41:57;;;;;;;9.23;2.42;;;18.70;99.90;;;;;;5114603;28;20042;-71
2022/06/13 10:44:23;;;;;;;8.70;1.98;;;18.30;99.90;;;;;;5114370;28;20116;-71
2022/06/13 10:46:53;;;;;;;7.25;1.52;;;18.20;99.90;;;;;;5114375;28;20530;-73
2022/06/13 10:49:19;;;;;;;;;;;18.70;99.90;;;;;;5096551;28;20040;-71
2022/06/13 10:51:46;;;;;;;6.85;2.00;;;19.20;99.90;;;;;;5114266;28;20045;-71
2022/06/13 10:54:13;;;;;;;7.03;2.20;;;19.20;99.90;;;;;;5079234;28;20047;-71
2022/06/13 10:56:43;;;;;;;5.80;1.30;;;19.10;99.90;;;;;;5094196;28;20040;-73
2022/06/13 10:59:30;;;;;;;5.10;1.30;;;18.80;99.90;;;;;;5114384;28;20408;-73
2022/06/13 11:02:05;;;;;;;5.68;1.55;;;18.70;99.90;;;;;;5114453;28;20115;-72
2022/06/13 11:04:33;;;;;;;4.38;1.15;;;19.00;99.90;;;;;;5095698;28;20502;-72
2022/06/13 11:07:14;;;;;;;7.40;1.70;;;19.20;99.90;;;;;;5078916;28;20501;-73
2022/06/13 11:09:54;;;;;;;10.35;2.03;;;19.00;99.90;;;;;;5113257;28;20467;-71
2022/06/13 11:12:31;;;;;;;;;;;18.60;99.90;;;;;;5095761;28;20035;-74
2022/06/13 11:24:18;;;;;;;7.32;1.20;;;18.10;99.90;;;;;;5095223;28;20054;-71
2022/06/13 11:29:32;;;;;;;7.20;1.27;;;17.70;99.90;;;;;;5110876;27;20051;-71
2022/06/13 11:32:00;;;;;;;6.57;2.50;;;18.10;99.90;;;;;;5095491;28;20377;-75
2022/06/13 11:34:38;;;;;;;4.97;1.35;;;18.40;99.90;;;;;;5113118;28;20040;-72
2022/06/13 11:37:17;;;;;;;4.65;1.40;;;18.40;99.90;;;;;;5095279;28;20040;-73
2022/06/13 11:39:46;;;;;;;7.15;1.33;;;18.20;99.90;;;;;;5094898;28;20062;-71
2022/06/13 11:42:32;;;;;;;6.38;1.65;;;18.30;99.90;;;;;;5095409;28;20066;-72
2022/06/13 11:45:06;;;;;;;8.90;1.80;;;18.80;99.90;;;;;;5112944;28;20043;-73
2022/06/13 11:47:45;;;;;;;7.72;1.70;;;18.90;99.90;;;;;;5094940;28;20123;-72
2022/06/13 11:50:49;;;;;;;7.32;2.05;;;19.10;99.90;;;;;;5094961;28;20475;-72
2022/06/13 11:56:19;;;;;;;7.28;1.27;;;19.30;99.90;;;;;;5093364;28;20031;-75
2022/06/13 11:58:49;;;;;;;7.00;1.67;;;19.60;99.90;;;;;;5094923;28;20475;-71
2022/06/13 12:01:30;;;;;;;7.18;1.40;;;19.90;99.90;;;;;;5113286;28;20036;-72
2022/06/13 12:04:04;;;;;;;10.07;1.73;;;20.00;99.90;;;;;;5113173;28;20051;-73
2022/06/13 12:06:56;;;;;;;4.15;1.60;;;19.80;99.90;;;;;;5095054;28;20043;-74
2022/06/13 12:09:32;;;;;;;6.75;1.75;;;19.30;99.90;;;;;;5078449;28;20032;-73
2022/06/13 12:12:04;;;;;;;8.23;1.95;;;19.00;99.90;;;;;;5095265;28;20042;-74
2022/06/13 12:14:39;;;;;;;6.72;1.65;;;18.60;99.90;;;;;;5094864;28;20039;-73
2022/06/13 12:17:10;;;;;;;8.18;1.30;;;18.40;99.90;;;;;;5113375;28;20043;-72
2022/06/13 12:20:15;;;;;;;9.48;2.13;;;18.20;99.90;;;;;;5077971;28;20046;-72
2022/06/13 12:22:56;;;;;;;7.72;1.30;;;18.40;99.90;;;;;;5112222;28;20134;-72
2022/06/13 12:25:34;;;;;;;6.18;1.73;;;18.70;99.90;;;;;;5094603;28;20497;-72
2022/06/13 12:28:10;;;;;;;7.70;1.52;;;19.10;99.90;;;;;;5099125;28;20438;-71
2022/06/13 12:30:55;;;;;;;8.82;1.30;;;19.20;99.90;;;;;;5098834;28;20125;-74
2022/06/13 12:33:42;;;;;;;5.53;1.40;;;19.10;99.90;;;;;;5099154;28;20047;-70
2022/06/13 12:36:50;;;;;;;6.78;1.42;;;19.30;99.90;;;;;;5098738;28;20043;-71
2022/06/13 12:39:42;;;;;;;4.95;1.48;;;19.40;99.90;;;;;;5061255;28;20051;-70
2022/06/13 12:42:19;;;;;;;5.68;1.02;;;19.30;99.90;;;;;;5115591;27;20538;-74
2022/06/13 12:44:45;;;;;;;4.45;1.00;;;19.40;99.90;;;;;;5098196;28;20116;-71
2022/06/13 12:47:17;;;;;;;5.82;1.50;;;19.30;99.90;;;;;;5116632;28;20126;-73
2022/06/13 12:50:18;;;;;;;4.47;1.05;;;19.00;99.90;;;;;;5098530;28;20068;-72
2022/06/13 12:52:51;;;;;;;5.53;1.50;;;18.80;99.90;;;;;;5116510;28;20035;-74
2022/06/13 12:55:38;;;;;;;6.03;1.52;;;18.80;99.90;;;;;;5098290;28;20096;-74
2022/06/13 12:58:31;;;;;;;4.38;1.40;;;18.80;99.90;;;;;;5098365;28;20086;-71
2022/06/13 13:01:25;;;;;;;6.13;1.60;;;18.70;99.90;;;;;;5098493;28;20375;-69
2022/06/13 13:04:28;;;;;;;7.30;1.70;;;18.60;99.90;;;;;;5116481;28;20062;-71
2022/06/13 13:07:26;;;;;;;4.88;1.20;;;18.30;99.90;;;;;;5098059;28;20043;-74
2022/06/13 13:10:11;;;;;;;6.80;1.33;;;18.10;99.90;;;;;;5094109;28;20058;-76
2022/06/13 13:12:43;;;;;;;5.03;1.38;;;17.90;99.90;;;;;;5116393;28;20049;-73
2022/06/13 13:15:21;;;;;;;5.95;1.42;;;17.90;99.90;;;;;;5097840;28;20043;-73
2022/06/13 13:17:57;;;;;;;8.27;1.60;;;18.30;99.90;;;;;;5097996;27;20086;-75
2022/06/13 13:20:34;;;;;;;7.15;1.50;;;18.60;99.90;;;;;;5115812;28;20502;-71
2022/06/13 13:22:59;;;;;;;6.93;1.45;;;18.90;99.90;;;;;;5116229;28;20039;-74
2022/06/13 13:25:33;;;;;;;6.60;1.60;;;19.10;99.90;;;;;;5096815;28;20407;-77
2022/06/13 13:28:25;;;;;;;4.15;1.38;;;19.50;99.90;;;;;;5097561;28;20514;-75
2022/06/13 13:30:56;;;;;;;9.48;2.05;;;19.70;99.90;;;;;;5115841;28;20048;-75
2022/06/13 13:34:07;;;;;;;6.28;1.10;;;19.90;99.90;;;;;;5097506;28;20475;-76
2022/06/13 13:37:12;;;;;;;4.57;1.45;;;20.10;99.90;;;;;;5076438;28;20041;-77
2022/06/13 13:40:01;;;;;;;7.47;2.22;;;20.40;99.90;;;;;;5087813;28;20047;-71
2022/06/13 13:43:11;;;;;;;6.50;1.40;;;20.80;99.90;;;;;;5113310;27;20051;-71
2022/06/13 13:45:39;;;;;;;7.80;1.42;;;21.20;99.90;;;;;;5097138;28;20047;-74
2022/06/13 13:48:21;;;;;;;4.35;1.35;;;21.40;99.90;;;;;;5097088;28;20123;-74